KVPS/VPS METAR and TAF weather

Enter ICAO airport designator
Station Type Date Time Source
KVPS METAR 2022/07/03 14:56 UTC NOAA

KVPS 031456Z 00000KT 10SM SCT017 BKN170 29/26 A3009 RMK AO2A SLP196 T02910257 50006 $


Station Type Date Time Source
KVPS Decoded METAR 2022/07/03 14:56 UTC NOAA

Valparaiso / Eglin Air Force Base, FL, United States (KVPS) 30-29N 086-31W 29M
Jul 03, 2022 - 10:56 AM EDT / 2022.07.03 1456 UTC
Wind: Calm:0
Visibility: 10 mile(s):0
Sky conditions: mostly cloudy
Temperature: 84.4 F (29.1 C)
Dew Point: 78.3 F (25.7 C)
Relative Humidity: 81%
Pressure (altimeter): 30.09 in. Hg (1018 hPa)
Pressure tendency: 0.02 inches (0.6 hPa) higher than three hours ago
ob: KVPS 031456Z 00000KT 10SM SCT017 BKN170 29/26 A3009 RMK AO2A SLP196 T02910257 50006
cycle: 15

Station Type Date Time Source
KVPS TAF 2022/07/03 11:03 UTC NOAA

TAF TAF
AMD KVPS 031136Z 0311/0415 22006KT 9999 VCTS SCT018 BKN035CB BKN170 QNH3003INS
TEMPO 0313/0318 22012G18KT 9000 -TSRA BKN018 BKN035CB
BECMG 0317/0318 21012KT 9000 SHRA VCTS BKN018 BKN035CB OVC190 QNH3008INS
TEMPO 0318/0322 22012G18KT 9000 -TSRA BKN018 BKN035CB
BECMG 0403/0404 23006KT 9999 NSW BKN020 BKN140 QNH3007INS
BECMG 0412/0413 02006KT 9999 VCTS SCT020 BKN035CB OVC140 QNH3011INS TX29/0318Z TN24/0311Z

Example: see airport list